Elephant Butte, NM

5:54 PM MDT on July 31, 2014 (GMT -0600)
Truth Or Consequences Municipal (KTCS) Elev 4859 ft | 33.24 °N, 107.27 °W | Change Station
Active Advisory: Flash Flood Watch

Current weather conditions updated 1 hour ago

Mostly Cloudy
Mostly Cloudy
87 °F
Feels Like 86 °F
N
7
Wind Variable Wind from ESE

Tomorrow is forecast to be Cooler than today. Afternoon showers and thunderstorms.

Today
High -- | Low -- °F
--% Chance of Precip.
Yesterday
High -- | Low -- °F
Precip. -- in
6:21 AM 8:09 PM
Waxing Crescent, 22% visible
Pressure 29.84 in
Visibility -9999.0 miles
Clouds Mostly Cloudy 7000 ft
Heat Index 86 °F
Dew Point 57 °F
Humidity 36%
Rainfall 0.00 in
Snow Depth Not available.
UV 3 out of 12
Pollen 3.40 out of 12
Air Quality Not available.
Flu Activity Not available.
METAR KTCS 312253Z AUTO 12006KT BKN070 31/14 A3010 RMK AO2 SLP105 T03060139 TSNO $

More Conditions Fewer Conditions

Pressure 29.84 in
Visibility -9999.0 miles
Clouds Mostly Cloudy 7000 ft
Heat Index 86 °F
Dew Point 57 °F
Humidity 36%
Rainfall 0.00 in
Snow Depth Not available.
UV 3 out of 12
Pollen 3.40 out of 12
Air Quality Not available.
Flu Activity Not available.
METAR KTCS 312253Z AUTO 12006KT BKN070 31/14 A3010 RMK AO2 SLP105 T03060139 TSNO $

More Conditions Fewer Conditions

10-Day Weather Forecast

Almanac

Astronomy

Jul. 31, 2014 Rise Set
Actual Time 6:21 AM MDT 8:09 PM MDT
Civil Twilight 5:54 AM MDT 8:36 PM MDT
Nautical Twilight 5:21 AM MDT 9:08 PM MDT
Astronomical Twilight 4:46 AM MDT 9:43 PM MDT
Moon 10:35 AM MDT 10:41 PM MDT
Length of Visible Light 14h 41m
Length of Day
13h 47m
Tomorrow will be 1m 31s shorter.
Waxing Crescent, 22% of the Moon is Illuminated
Today
Waxing Crescent
Aug 3
First Quarter
Aug 10
Full
Aug 17
Last Quarter
Aug 25
New

Today's Extremes

State Highs State Lows

Community

WunderPhotos

Upload Photos

1,739,460 photos uploaded!

Nearby

Snow Depth

Station Depth Elevation
Lookout Mountain 0 in 8500 ft
Silver Creek Divide 1 in 9000 ft
Sierra Blanca 1 in 10280 ft
Santa Fe 0 in 11445 ft
Elk Cabin 111 in 8210 ft

Earthquake Activity

City Distance Mag. Time & Date
No recent earthquake activity has been reported nearby.
Minimum magnitude displayed is 2.5.

Coastal Water Temperatures

Place Temperature
No Stations Reporting

Nearby Weather Stations

There are no personal weather stations in this area.